sensor_id;sensor_type;location;lat;lon;timestamp;pressure;altitude;pressure_sealevel;temperature;humidity
18697;BME280;22617;43.690;27.956;2023-01-30T00:02:27;99273.56;;;-1.00;79.43
18697;BME280;22617;43.690;27.956;2023-01-30T00:07:32;99277.91;;;-0.79;79.66
18697;BME280;22617;43.690;27.956;2023-01-30T00:12:36;99272.91;;;-0.76;79.58
18697;BME280;22617;43.690;27.956;2023-01-30T00:17:39;99270.84;;;-0.66;79.54
18697;BME280;22617;43.690;27.956;2023-01-30T00:22:45;99274.00;;;-0.71;79.01
18697;BME280;22617;43.690;27.956;2023-01-30T00:28:02;99278.47;;;-0.67;79.53
18697;BME280;22617;43.690;27.956;2023-01-30T00:33:05;99279.94;;;-0.72;79.65
18697;BME280;22617;43.690;27.956;2023-01-30T00:38:10;99285.91;;;-0.72;79.87
18697;BME280;22617;43.690;27.956;2023-01-30T00:43:17;99274.88;;;-0.71;80.48
18697;BME280;22617;43.690;27.956;2023-01-30T00:48:38;99265.03;;;-0.81;80.41
18697;BME280;22617;43.690;27.956;2023-01-30T00:53:43;99262.22;;;-0.87;80.36
18697;BME280;22617;43.690;27.956;2023-01-30T00:58:48;99267.19;;;-0.90;80.39
18697;BME280;22617;43.690;27.956;2023-01-30T01:03:52;99253.59;;;-0.89;80.74
18697;BME280;22617;43.690;27.956;2023-01-30T01:08:57;99250.25;;;-0.88;80.73
18697;BME280;22617;43.690;27.956;2023-01-30T01:14:02;99251.25;;;-0.84;80.72
18697;BME280;22617;43.690;27.956;2023-01-30T01:19:06;99251.31;;;-0.83;80.63
18697;BME280;22617;43.690;27.956;2023-01-30T01:24:14;99257.84;;;-0.90;80.71
18697;BME280;22617;43.690;27.956;2023-01-30T01:29:18;99258.72;;;-0.89;80.58
18697;BME280;22617;43.690;27.956;2023-01-30T01:34:21;99254.34;;;-0.92;80.84
18697;BME280;22617;43.690;27.956;2023-01-30T01:39:26;99252.19;;;-0.82;80.92
18697;BME280;22617;43.690;27.956;2023-01-30T01:44:59;99249.56;;;-0.84;80.83
18697;BME280;22617;43.690;27.956;2023-01-30T01:50:05;99250.31;;;-0.86;80.51
18697;BME280;22617;43.690;27.956;2023-01-30T01:55:14;99244.84;;;-0.94;80.99
18697;BME280;22617;43.690;27.956;2023-01-30T02:00:20;99250.09;;;-0.91;81.07
18697;BME280;22617;43.690;27.956;2023-01-30T02:05:27;99253.41;;;-0.94;80.65
18697;BME280;22617;43.690;27.956;2023-01-30T02:10:39;99255.81;;;-0.97;81.04
18697;BME280;22617;43.690;27.956;2023-01-30T02:15:46;99250.75;;;-0.95;81.28
18697;BME280;22617;43.690;27.956;2023-01-30T02:21:05;99253.28;;;-0.97;81.40
18697;BME280;22617;43.690;27.956;2023-01-30T02:31:56;99251.03;;;-0.89;81.34
18697;BME280;22617;43.690;27.956;2023-01-30T02:37:16;99245.25;;;-0.85;81.22
18697;BME280;22617;43.690;27.956;2023-01-30T02:42:30;99242.56;;;-0.69;81.40
18697;BME280;22617;43.690;27.956;2023-01-30T02:47:43;99240.53;;;-0.95;80.90
18697;BME280;22617;43.690;27.956;2023-01-30T02:52:49;99231.25;;;-0.93;81.59
18697;BME280;22617;43.690;27.956;2023-01-30T02:57:54;99221.75;;;-0.96;81.55
18697;BME280;22617;43.690;27.956;2023-01-30T03:03:09;99227.13;;;-0.90;81.29
18697;BME280;22617;43.690;27.956;2023-01-30T03:08:24;99230.50;;;-0.91;81.34
18697;BME280;22617;43.690;27.956;2023-01-30T03:13:42;99231.13;;;-0.96;81.16
18697;BME280;22617;43.690;27.956;2023-01-30T03:18:51;99233.44;;;-1.01;81.13
18697;BME280;22617;43.690;27.956;2023-01-30T03:23:55;99235.22;;;-1.00;81.27
18697;BME280;22617;43.690;27.956;2023-01-30T03:28:59;99236.16;;;-0.98;81.36
18697;BME280;22617;43.690;27.956;2023-01-30T03:34:05;99240.59;;;-0.94;81.56
18697;BME280;22617;43.690;27.956;2023-01-30T03:39:09;99235.38;;;-0.97;81.46
18697;BME280;22617;43.690;27.956;2023-01-30T03:44:13;99220.81;;;-0.98;81.50
18697;BME280;22617;43.690;27.956;2023-01-30T03:49:18;99219.84;;;-1.00;81.31
18697;BME280;22617;43.690;27.956;2023-01-30T03:54:23;99219.75;;;-1.03;81.43
18697;BME280;22617;43.690;27.956;2023-01-30T03:59:28;99221.53;;;-1.00;81.80
18697;BME280;22617;43.690;27.956;2023-01-30T04:04:40;99223.09;;;-1.04;81.41
18697;BME280;22617;43.690;27.956;2023-01-30T04:09:45;99218.34;;;-0.96;81.52
18697;BME280;22617;43.690;27.956;2023-01-30T04:14:51;99210.72;;;-0.95;81.92
18697;BME280;22617;43.690;27.956;2023-01-30T04:20:20;99200.06;;;-1.04;81.97
18697;BME280;22617;43.690;27.956;2023-01-30T04:25:27;99205.88;;;-1.08;81.90
18697;BME280;22617;43.690;27.956;2023-01-30T04:30:32;99195.72;;;-1.06;82.00
18697;BME280;22617;43.690;27.956;2023-01-30T04:36:01;99201.47;;;-1.10;82.12
18697;BME280;22617;43.690;27.956;2023-01-30T04:41:05;99190.44;;;-1.09;82.48
18697;BME280;22617;43.690;27.956;2023-01-30T04:46:13;99190.13;;;-1.17;82.55
18697;BME280;22617;43.690;27.956;2023-01-30T04:51:19;99186.47;;;-1.22;82.58
18697;BME280;22617;43.690;27.956;2023-01-30T04:56:25;99185.31;;;-1.28;82.62
18697;BME280;22617;43.690;27.956;2023-01-30T05:01:30;99195.53;;;-1.28;82.58
18697;BME280;22617;43.690;27.956;2023-01-30T05:06:36;99190.69;;;-1.42;82.42
18697;BME280;22617;43.690;27.956;2023-01-30T05:11:40;99186.97;;;-1.48;82.59
18697;BME280;22617;43.690;27.956;2023-01-30T05:16:44;99191.94;;;-1.51;82.44
18697;BME280;22617;43.690;27.956;2023-01-30T05:21:49;99200.16;;;-1.58;82.35
18697;BME280;22617;43.690;27.956;2023-01-30T05:26:53;99197.19;;;-1.48;82.78
18697;BME280;22617;43.690;27.956;2023-01-30T05:31:57;99200.81;;;-1.43;83.19
18697;BME280;22617;43.690;27.956;2023-01-30T05:37:02;99204.25;;;-1.43;83.22
18697;BME280;22617;43.690;27.956;2023-01-30T05:42:06;99203.09;;;-1.32;83.50
18697;BME280;22617;43.690;27.956;2023-01-30T05:47:09;99212.91;;;-1.21;83.78
18697;BME280;22617;43.690;27.956;2023-01-30T05:52:16;99207.59;;;-1.26;83.51
18697;BME280;22617;43.690;27.956;2023-01-30T05:57:20;99207.84;;;-1.20;84.15
18697;BME280;22617;43.690;27.956;2023-01-30T06:02:23;99206.75;;;-1.07;84.22
18697;BME280;22617;43.690;27.956;2023-01-30T06:07:28;99203.69;;;-1.18;83.90
18697;BME280;22617;43.690;27.956;2023-01-30T06:12:32;99208.09;;;-1.15;84.28
18697;BME280;22617;43.690;27.956;2023-01-30T06:17:38;99201.44;;;-1.12;84.58
18697;BME280;22617;43.690;27.956;2023-01-30T06:22:46;99197.53;;;-1.04;84.85
18697;BME280;22617;43.690;27.956;2023-01-30T06:27:50;99202.50;;;-1.07;84.47
18697;BME280;22617;43.690;27.956;2023-01-30T06:32:54;99196.81;;;-1.01;84.75
18697;BME280;22617;43.690;27.956;2023-01-30T06:37:59;99193.75;;;-0.93;84.40
18697;BME280;22617;43.690;27.956;2023-01-30T06:43:03;99191.31;;;-0.90;84.74
18697;BME280;22617;43.690;27.956;2023-01-30T06:48:08;99183.38;;;-0.76;84.58
18697;BME280;22617;43.690;27.956;2023-01-30T06:53:13;99181.44;;;-0.82;84.95
18697;BME280;22617;43.690;27.956;2023-01-30T06:58:17;99183.31;;;-0.78;84.44
18697;BME280;22617;43.690;27.956;2023-01-30T07:03:21;99174.13;;;-0.54;83.98
18697;BME280;22617;43.690;27.956;2023-01-30T07:08:27;99182.13;;;-0.46;83.40
18697;BME280;22617;43.690;27.956;2023-01-30T07:13:31;99182.88;;;-0.49;82.61
18697;BME280;22617;43.690;27.956;2023-01-30T07:18:35;99174.03;;;-0.36;82.87
18697;BME280;22617;43.690;27.956;2023-01-30T07:23:40;99180.94;;;-0.33;82.45
18697;BME280;22617;43.690;27.956;2023-01-30T07:28:45;99181.81;;;-0.33;81.66
18697;BME280;22617;43.690;27.956;2023-01-30T07:33:48;99176.78;;;-0.31;81.70
18697;BME280;22617;43.690;27.956;2023-01-30T07:38:53;99172.47;;;-0.12;81.28
18697;BME280;22617;43.690;27.956;2023-01-30T07:43:57;99160.97;;;-0.01;80.58
18697;BME280;22617;43.690;27.956;2023-01-30T07:49:01;99165.06;;;-0.04;80.76
18697;BME280;22617;43.690;27.956;2023-01-30T07:54:06;99165.69;;;0.11;80.37
18697;BME280;22617;43.690;27.956;2023-01-30T07:59:10;99166.97;;;0.00;80.22
18697;BME280;22617;43.690;27.956;2023-01-30T08:04:15;99158.34;;;-0.02;80.35
18697;BME280;22617;43.690;27.956;2023-01-30T08:09:20;99155.97;;;0.03;80.60
18697;BME280;22617;43.690;27.956;2023-01-30T08:14:24;99154.78;;;-0.06;80.63
18697;BME280;22617;43.690;27.956;2023-01-30T08:19:29;99158.63;;;0.06;80.73
18697;BME280;22617;43.690;27.956;2023-01-30T08:24:35;99149.44;;;0.11;79.93
18697;BME280;22617;43.690;27.956;2023-01-30T08:29:38;99138.56;;;0.16;79.95
18697;BME280;22617;43.690;27.956;2023-01-30T08:34:42;99140.44;;;0.20;79.71
18697;BME280;22617;43.690;27.956;2023-01-30T08:39:47;99129.91;;;0.13;79.79
18697;BME280;22617;43.690;27.956;2023-01-30T08:44:51;99109.50;;;0.16;79.36
18697;BME280;22617;43.690;27.956;2023-01-30T08:49:55;99106.59;;;0.51;79.86
18697;BME280;22617;43.690;27.956;2023-01-30T08:55:00;99110.69;;;0.94;79.50
18697;BME280;22617;43.690;27.956;2023-01-30T09:00:05;99098.59;;;0.90;78.11
18697;BME280;22617;43.690;27.956;2023-01-30T09:05:09;99096.41;;;1.25;77.20
18697;BME280;22617;43.690;27.956;2023-01-30T09:10:15;99084.38;;;1.48;76.67
18697;BME280;22617;43.690;27.956;2023-01-30T09:15:19;99071.38;;;1.44;76.08
18697;BME280;22617;43.690;27.956;2023-01-30T09:20:23;99067.59;;;1.59;75.88
18697;BME280;22617;43.690;27.956;2023-01-30T09:25:29;99072.22;;;1.96;75.88
18697;BME280;22617;43.690;27.956;2023-01-30T09:30:33;99063.34;;;1.87;75.68
18697;BME280;22617;43.690;27.956;2023-01-30T09:35:36;99053.06;;;1.87;75.68
18697;BME280;22617;43.690;27.956;2023-01-30T09:40:52;99047.53;;;2.01;74.44
18697;BME280;22617;43.690;27.956;2023-01-30T09:46:06;99035.28;;;2.23;74.20
18697;BME280;22617;43.690;27.956;2023-01-30T09:51:33;99031.22;;;2.31;75.15
18697;BME280;22617;43.690;27.956;2023-01-30T09:56:40;99015.03;;;2.33;74.39
18697;BME280;22617;43.690;27.956;2023-01-30T10:01:51;98999.97;;;2.77;74.22
18697;BME280;22617;43.690;27.956;2023-01-30T10:07:03;98989.47;;;3.02;72.94
18697;BME280;22617;43.690;27.956;2023-01-30T10:12:25;98972.16;;;3.67;70.80
18697;BME280;22617;43.690;27.956;2023-01-30T10:17:45;98963.78;;;3.77;70.86
18697;BME280;22617;43.690;27.956;2023-01-30T10:23:03;98970.88;;;4.27;69.68
18697;BME280;22617;43.690;27.956;2023-01-30T10:28:16;98957.25;;;3.55;70.58
18697;BME280;22617;43.690;27.956;2023-01-30T10:33:27;98941.81;;;3.55;71.67
18697;BME280;22617;43.690;27.956;2023-01-30T10:38:38;98939.88;;;3.84;70.65
18697;BME280;22617;43.690;27.956;2023-01-30T10:43:47;98931.47;;;4.81;67.64
18697;BME280;22617;43.690;27.956;2023-01-30T10:48:58;98918.53;;;4.78;67.35
18697;BME280;22617;43.690;27.956;2023-01-30T10:54:09;98914.19;;;5.87;67.53
18697;BME280;22617;43.690;27.956;2023-01-30T10:59:23;98902.81;;;5.77;66.03
18697;BME280;22617;43.690;27.956;2023-01-30T11:04:34;98875.19;;;6.44;64.13
18697;BME280;22617;43.690;27.956;2023-01-30T11:09:43;98867.56;;;6.56;63.46
18697;BME280;22617;43.690;27.956;2023-01-30T11:14:57;98870.66;;;5.57;64.42
18697;BME280;22617;43.690;27.956;2023-01-30T11:20:08;98857.13;;;4.62;67.03
18697;BME280;22617;43.690;27.956;2023-01-30T11:25:17;98841.84;;;3.79;67.79
18697;BME280;22617;43.690;27.956;2023-01-30T11:30:28;98828.41;;;3.95;69.33
18697;BME280;22617;43.690;27.956;2023-01-30T11:35:36;98812.84;;;4.90;67.61
18697;BME280;22617;43.690;27.956;2023-01-30T11:40:44;98810.94;;;4.27;67.51
18697;BME280;22617;43.690;27.956;2023-01-30T11:45:50;98806.84;;;4.38;70.61
18697;BME280;22617;43.690;27.956;2023-01-30T11:50:57;98789.81;;;5.02;68.70
18697;BME280;22617;43.690;27.956;2023-01-30T11:56:07;98781.28;;;4.51;64.90
18697;BME280;22617;43.690;27.956;2023-01-30T12:01:15;98769.31;;;4.57;65.03
18697;BME280;22617;43.690;27.956;2023-01-30T12:06:21;98767.56;;;4.05;66.52
18697;BME280;22617;43.690;27.956;2023-01-30T12:11:29;98764.00;;;3.52;69.21
18697;BME280;22617;43.690;27.956;2023-01-30T12:16:45;98745.66;;;3.82;70.75
18697;BME280;22617;43.690;27.956;2023-01-30T12:21:56;98734.94;;;3.61;70.16
18697;BME280;22617;43.690;27.956;2023-01-30T12:27:03;98743.34;;;3.49;71.06
18697;BME280;22617;43.690;27.956;2023-01-30T12:32:12;98735.34;;;3.37;70.58
18697;BME280;22617;43.690;27.956;2023-01-30T12:37:32;98728.66;;;3.45;71.93
18697;BME280;22617;43.690;27.956;2023-01-30T12:42:53;98724.25;;;3.39;71.34
18697;BME280;22617;43.690;27.956;2023-01-30T12:48:26;98724.69;;;3.19;71.89
18697;BME280;22617;43.690;27.956;2023-01-30T12:53:55;98718.97;;;3.33;71.59
18697;BME280;22617;43.690;27.956;2023-01-30T12:59:10;98717.22;;;3.32;70.63
18697;BME280;22617;43.690;27.956;2023-01-30T13:04:27;98709.34;;;3.25;71.78
18697;BME280;22617;43.690;27.956;2023-01-30T13:09:48;98696.97;;;3.05;71.09
18697;BME280;22617;43.690;27.956;2023-01-30T13:15:00;98683.06;;;3.87;68.88
18697;BME280;22617;43.690;27.956;2023-01-30T13:20:18;98689.25;;;3.97;67.45
18697;BME280;22617;43.690;27.956;2023-01-30T13:25:30;98690.91;;;3.47;67.04
18697;BME280;22617;43.690;27.956;2023-01-30T13:30:43;98688.44;;;3.10;67.74
18697;BME280;22617;43.690;27.956;2023-01-30T13:35:52;98683.34;;;3.11;68.79
18697;BME280;22617;43.690;27.956;2023-01-30T13:40:59;98689.69;;;2.86;72.47
18697;BME280;22617;43.690;27.956;2023-01-30T13:46:08;98683.47;;;2.77;73.48
18697;BME280;22617;43.690;27.956;2023-01-30T13:51:23;98671.09;;;2.59;74.28
18697;BME280;22617;43.690;27.956;2023-01-30T13:56:35;98672.56;;;2.48;74.15
18697;BME280;22617;43.690;27.956;2023-01-30T14:07:27;98659.13;;;2.24;76.19
18697;BME280;22617;43.690;27.956;2023-01-30T14:12:35;98655.66;;;2.22;76.84
18697;BME280;22617;43.690;27.956;2023-01-30T14:17:56;98644.00;;;2.37;76.27
18697;BME280;22617;43.690;27.956;2023-01-30T14:23:03;98635.28;;;2.29;74.77
18697;BME280;22617;43.690;27.956;2023-01-30T14:33:51;98638.03;;;2.01;76.18
18697;BME280;22617;43.690;27.956;2023-01-30T14:39:36;98634.19;;;1.84;76.86
18697;BME280;22617;43.690;27.956;2023-01-30T14:44:57;98629.97;;;1.86;76.72
18697;BME280;22617;43.690;27.956;2023-01-30T14:50:16;98624.94;;;1.90;76.32
18697;BME280;22617;43.690;27.956;2023-01-30T14:55:25;98622.81;;;1.72;77.52
18697;BME280;22617;43.690;27.956;2023-01-30T15:00:33;98624.50;;;1.72;77.68
18697;BME280;22617;43.690;27.956;2023-01-30T15:05:42;98610.50;;;1.61;78.33
18697;BME280;22617;43.690;27.956;2023-01-30T15:10:59;98617.06;;;1.48;78.54
18697;BME280;22617;43.690;27.956;2023-01-30T15:21:44;98610.84;;;1.40;78.18
18697;BME280;22617;43.690;27.956;2023-01-30T15:26:59;98618.47;;;1.37;78.47
18697;BME280;22617;43.690;27.956;2023-01-30T15:32:16;98623.06;;;1.17;79.13
18697;BME280;22617;43.690;27.956;2023-01-30T15:37:31;98624.69;;;1.14;79.25
18697;BME280;22617;43.690;27.956;2023-01-30T15:42:37;98625.69;;;1.19;79.70
18697;BME280;22617;43.690;27.956;2023-01-30T15:48:01;98624.13;;;1.25;80.00
18697;BME280;22617;43.690;27.956;2023-01-30T15:53:12;98621.38;;;1.18;80.09
18697;BME280;22617;43.690;27.956;2023-01-30T15:58:19;98619.75;;;1.20;79.29
18697;BME280;22617;43.690;27.956;2023-01-30T16:03:28;98624.53;;;1.08;78.76
18697;BME280;22617;43.690;27.956;2023-01-30T16:08:34;98619.41;;;1.08;78.62
18697;BME280;22617;43.690;27.956;2023-01-30T16:13:40;98609.88;;;1.04;78.61
18697;BME280;22617;43.690;27.956;2023-01-30T16:18:48;98608.13;;;1.03;77.89
18697;BME280;22617;43.690;27.956;2023-01-30T16:23:57;98607.25;;;1.02;78.01
18697;BME280;22617;43.690;27.956;2023-01-30T16:29:05;98608.09;;;1.01;78.02
18697;BME280;22617;43.690;27.956;2023-01-30T16:34:35;98614.00;;;0.99;78.77
18697;BME280;22617;43.690;27.956;2023-01-30T16:39:39;98607.97;;;0.97;78.70
18697;BME280;22617;43.690;27.956;2023-01-30T16:44:44;98605.41;;;0.97;79.18
18697;BME280;22617;43.690;27.956;2023-01-30T16:49:48;98601.06;;;0.94;78.68
18697;BME280;22617;43.690;27.956;2023-01-30T16:54:56;98595.00;;;0.92;78.56
18697;BME280;22617;43.690;27.956;2023-01-30T17:00:04;98600.66;;;0.79;78.30
18697;BME280;22617;43.690;27.956;2023-01-30T17:05:17;98594.56;;;0.75;77.84
18697;BME280;22617;43.690;27.956;2023-01-30T17:10:50;98596.59;;;0.87;77.35
18697;BME280;22617;43.690;27.956;2023-01-30T17:16:16;98581.00;;;0.79;77.94
18697;BME280;22617;43.690;27.956;2023-01-30T17:21:22;98586.13;;;0.79;78.06
18697;BME280;22617;43.690;27.956;2023-01-30T17:26:27;98577.25;;;0.68;78.67
18697;BME280;22617;43.690;27.956;2023-01-30T17:31:33;98582.00;;;0.55;78.96
18697;BME280;22617;43.690;27.956;2023-01-30T17:36:37;98564.13;;;0.56;79.92
18697;BME280;22617;43.690;27.956;2023-01-30T17:41:42;98573.94;;;0.41;80.69
18697;BME280;22617;43.690;27.956;2023-01-30T17:46:49;98562.06;;;0.44;80.90
18697;BME280;22617;43.690;27.956;2023-01-30T17:51:54;98563.97;;;0.52;81.29
18697;BME280;22617;43.690;27.956;2023-01-30T17:57:03;98558.69;;;0.46;81.39
18697;BME280;22617;43.690;27.956;2023-01-30T18:02:09;98546.16;;;0.26;82.61
18697;BME280;22617;43.690;27.956;2023-01-30T18:07:14;98538.69;;;0.34;83.04
18697;BME280;22617;43.690;27.956;2023-01-30T18:12:19;98537.59;;;0.26;83.16
18697;BME280;22617;43.690;27.956;2023-01-30T18:17:25;98522.28;;;0.27;83.08
18697;BME280;22617;43.690;27.956;2023-01-30T18:22:30;98526.16;;;0.15;83.11
18697;BME280;22617;43.690;27.956;2023-01-30T18:27:34;98522.78;;;0.16;83.01
18697;BME280;22617;43.690;27.956;2023-01-30T18:32:40;98516.06;;;0.19;83.28
18697;BME280;22617;43.690;27.956;2023-01-30T18:37:54;98508.09;;;0.09;82.72
18697;BME280;22617;43.690;27.956;2023-01-30T18:43:04;98501.97;;;0.04;82.64
18697;BME280;22617;43.690;27.956;2023-01-30T18:48:11;98494.34;;;0.07;83.13
18697;BME280;22617;43.690;27.956;2023-01-30T18:53:16;98490.53;;;-0.08;82.92
18697;BME280;22617;43.690;27.956;2023-01-30T18:58:20;98484.41;;;-0.13;83.28
18697;BME280;22617;43.690;27.956;2023-01-30T19:03:27;98483.53;;;-0.13;83.56
18697;BME280;22617;43.690;27.956;2023-01-30T19:08:32;98473.00;;;-0.22;83.67
18697;BME280;22617;43.690;27.956;2023-01-30T19:13:36;98472.75;;;-0.31;83.58
18697;BME280;22617;43.690;27.956;2023-01-30T19:18:43;98471.25;;;-0.25;83.86
18697;BME280;22617;43.690;27.956;2023-01-30T19:23:47;98461.91;;;-0.23;84.08
18697;BME280;22617;43.690;27.956;2023-01-30T19:28:51;98468.50;;;-0.31;83.78
18697;BME280;22617;43.690;27.956;2023-01-30T19:34:00;98466.88;;;-0.29;84.07
18697;BME280;22617;43.690;27.956;2023-01-30T19:39:06;98472.34;;;-0.45;84.13
18697;BME280;22617;43.690;27.956;2023-01-30T19:44:11;98457.47;;;-0.28;84.53
18697;BME280;22617;43.690;27.956;2023-01-30T19:49:16;98462.38;;;-0.36;84.94
18697;BME280;22617;43.690;27.956;2023-01-30T19:54:23;98457.47;;;-0.28;84.85
18697;BME280;22617;43.690;27.956;2023-01-30T19:59:27;98453.06;;;-0.34;84.46
18697;BME280;22617;43.690;27.956;2023-01-30T20:04:32;98450.50;;;-0.34;84.22
18697;BME280;22617;43.690;27.956;2023-01-30T20:09:36;98446.09;;;-0.38;83.81
18697;BME280;22617;43.690;27.956;2023-01-30T20:14:40;98449.06;;;-0.53;83.70
18697;BME280;22617;43.690;27.956;2023-01-30T20:19:46;98456.66;;;-0.56;83.29
18697;BME280;22617;43.690;27.956;2023-01-30T20:24:49;98442.78;;;-0.62;83.54
18697;BME280;22617;43.690;27.956;2023-01-30T20:29:53;98443.66;;;-0.62;83.17
18697;BME280;22617;43.690;27.956;2023-01-30T20:34:58;98441.94;;;-0.63;82.99
18697;BME280;22617;43.690;27.956;2023-01-30T20:40:05;98437.59;;;-0.65;82.70
18697;BME280;22617;43.690;27.956;2023-01-30T20:45:09;98435.75;;;-0.69;82.94
18697;BME280;22617;43.690;27.956;2023-01-30T20:50:15;98441.84;;;-0.66;82.37
18697;BME280;22617;43.690;27.956;2023-01-30T20:55:20;98436.44;;;-0.75;82.19
18697;BME280;22617;43.690;27.956;2023-01-30T21:00:24;98432.13;;;-0.76;81.83
18697;BME280;22617;43.690;27.956;2023-01-30T21:05:29;98423.56;;;-0.78;81.56
18697;BME280;22617;43.690;27.956;2023-01-30T21:10:33;98418.53;;;-0.75;81.41
18697;BME280;22617;43.690;27.956;2023-01-30T21:15:37;98431.25;;;-0.76;80.83
18697;BME280;22617;43.690;27.956;2023-01-30T21:20:48;98420.34;;;-0.72;81.08
18697;BME280;22617;43.690;27.956;2023-01-30T21:25:52;98419.13;;;-0.83;81.59
18697;BME280;22617;43.690;27.956;2023-01-30T21:30:56;98420.47;;;-0.95;81.60
18697;BME280;22617;43.690;27.956;2023-01-30T21:36:08;98414.38;;;-0.98;82.09
18697;BME280;22617;43.690;27.956;2023-01-30T21:41:15;98413.66;;;-0.94;81.97
18697;BME280;22617;43.690;27.956;2023-01-30T21:46:38;98397.00;;;-0.81;82.12
18697;BME280;22617;43.690;27.956;2023-01-30T21:51:47;98391.72;;;-0.88;81.63
18697;BME280;22617;43.690;27.956;2023-01-30T21:56:51;98388.69;;;-1.03;81.86
18697;BME280;22617;43.690;27.956;2023-01-30T22:01:54;98377.91;;;-0.93;81.75
18697;BME280;22617;43.690;27.956;2023-01-30T22:07:00;98372.69;;;-0.96;81.36
18697;BME280;22617;43.690;27.956;2023-01-30T22:12:07;98363.34;;;-0.95;81.51
18697;BME280;22617;43.690;27.956;2023-01-30T22:17:11;98370.88;;;-1.00;82.07
18697;BME280;22617;43.690;27.956;2023-01-30T22:22:17;98368.69;;;-0.88;82.17
18697;BME280;22617;43.690;27.956;2023-01-30T22:27:21;98361.44;;;-1.02;82.31
18697;BME280;22617;43.690;27.956;2023-01-30T22:32:25;98364.97;;;-1.24;82.29
18697;BME280;22617;43.690;27.956;2023-01-30T22:37:31;98353.06;;;-1.25;82.98
18697;BME280;22617;43.690;27.956;2023-01-30T22:42:34;98350.81;;;-1.41;83.03
18697;BME280;22617;43.690;27.956;2023-01-30T22:47:39;98341.41;;;-1.42;83.70
18697;BME280;22617;43.690;27.956;2023-01-30T22:52:44;98336.56;;;-1.35;83.43
18697;BME280;22617;43.690;27.956;2023-01-30T22:57:48;98333.28;;;-1.30;83.44
18697;BME280;22617;43.690;27.956;2023-01-30T23:02:51;98333.00;;;-1.40;83.30
18697;BME280;22617;43.690;27.956;2023-01-30T23:07:57;98325.47;;;-1.35;82.64
18697;BME280;22617;43.690;27.956;2023-01-30T23:13:00;98331.38;;;-1.36;83.21
18697;BME280;22617;43.690;27.956;2023-01-30T23:18:10;98319.69;;;-1.29;82.76
18697;BME280;22617;43.690;27.956;2023-01-30T23:23:32;98328.53;;;-1.45;82.64
18697;BME280;22617;43.690;27.956;2023-01-30T23:28:37;98328.69;;;-1.41;82.62
18697;BME280;22617;43.690;27.956;2023-01-30T23:33:41;98327.09;;;-1.37;82.24
18697;BME280;22617;43.690;27.956;2023-01-30T23:38:48;98327.31;;;-1.56;82.71
18697;BME280;22617;43.690;27.956;2023-01-30T23:43:53;98325.59;;;-1.57;82.49
18697;BME280;22617;43.690;27.956;2023-01-30T23:48:58;98327.38;;;-1.55;82.35
18697;BME280;22617;43.690;27.956;2023-01-30T23:54:04;98330.91;;;-1.51;82.62
18697;BME280;22617;43.690;27.956;2023-01-30T23:59:09;98321.19;;;-1.61;82.30
